sensor_id;sensor_type;location;lat;lon;timestamp;P1;durP1;ratioP1;P2;durP2;ratioP2
25780;SDS011;13626;48.128;11.628;2023-04-24T00:02:25;2.50;;;0.98;;
25780;SDS011;13626;48.128;11.628;2023-04-24T00:04:52;1.60;;;1.08;;
25780;SDS011;13626;48.128;11.628;2023-04-24T00:07:20;0.80;;;0.80;;
25780;SDS011;13626;48.128;11.628;2023-04-24T00:09:47;2.95;;;1.13;;
25780;SDS011;13626;48.128;11.628;2023-04-24T00:12:14;1.48;;;1.10;;
25780;SDS011;13626;48.128;11.628;2023-04-24T00:14:41;1.25;;;1.10;;
25780;SDS011;13626;48.128;11.628;2023-04-24T00:17:08;0.90;;;0.90;;
25780;SDS011;13626;48.128;11.628;2023-04-24T00:19:35;2.33;;;1.00;;
25780;SDS011;13626;48.128;11.628;2023-04-24T00:22:03;4.90;;;1.00;;
25780;SDS011;13626;48.128;11.628;2023-04-24T00:24:30;0.93;;;0.90;;
25780;SDS011;13626;48.128;11.628;2023-04-24T00:26:57;1.00;;;0.90;;
25780;SDS011;13626;48.128;11.628;2023-04-24T00:29:25;2.70;;;0.82;;
25780;SDS011;13626;48.128;11.628;2023-04-24T00:31:52;1.67;;;1.15;;
25780;SDS011;13626;48.128;11.628;2023-04-24T00:34:19;1.60;;;0.82;;
25780;SDS011;13626;48.128;11.628;2023-04-24T00:36:47;1.98;;;1.10;;
25780;SDS011;13626;48.128;11.628;2023-04-24T00:39:18;1.48;;;0.90;;
25780;SDS011;13626;48.128;11.628;2023-04-24T00:41:45;1.65;;;0.88;;
25780;SDS011;13626;48.128;11.628;2023-04-24T00:44:14;1.13;;;0.98;;
25780;SDS011;13626;48.128;11.628;2023-04-24T00:46:41;0.90;;;0.80;;
25780;SDS011;13626;48.128;11.628;2023-04-24T00:49:09;1.35;;;0.88;;
25780;SDS011;13626;48.128;11.628;2023-04-24T00:51:36;0.80;;;0.80;;
25780;SDS011;13626;48.128;11.628;2023-04-24T00:54:03;1.33;;;0.88;;
25780;SDS011;13626;48.128;11.628;2023-04-24T00:56:31;2.25;;;0.90;;
25780;SDS011;13626;48.128;11.628;2023-04-24T00:58:59;0.68;;;0.57;;
25780;SDS011;13626;48.128;11.628;2023-04-24T01:01:26;0.80;;;0.60;;
25780;SDS011;13626;48.128;11.628;2023-04-24T01:03:53;0.70;;;0.70;;
25780;SDS011;13626;48.128;11.628;2023-04-24T01:06:21;0.80;;;0.60;;
25780;SDS011;13626;48.128;11.628;2023-04-24T01:08:49;1.35;;;0.70;;
25780;SDS011;13626;48.128;11.628;2023-04-24T01:11:16;1.20;;;0.60;;
25780;SDS011;13626;48.128;11.628;2023-04-24T01:13:44;0.98;;;0.60;;
25780;SDS011;13626;48.128;11.628;2023-04-24T01:16:11;0.85;;;0.60;;
25780;SDS011;13626;48.128;11.628;2023-04-24T01:18:39;1.00;;;0.70;;
25780;SDS011;13626;48.128;11.628;2023-04-24T01:21:07;0.60;;;0.50;;
25780;SDS011;13626;48.128;11.628;2023-04-24T01:23:35;0.68;;;0.60;;
25780;SDS011;13626;48.128;11.628;2023-04-24T01:26:02;1.00;;;0.80;;
25780;SDS011;13626;48.128;11.628;2023-04-24T01:28:29;1.83;;;0.75;;
25780;SDS011;13626;48.128;11.628;2023-04-24T01:30:57;0.52;;;0.52;;
25780;SDS011;13626;48.128;11.628;2023-04-24T01:33:24;0.40;;;0.40;;
25780;SDS011;13626;48.128;11.628;2023-04-24T01:35:51;0.47;;;0.47;;
25780;SDS011;13626;48.128;11.628;2023-04-24T01:38:19;0.60;;;0.50;;
25780;SDS011;13626;48.128;11.628;2023-04-24T01:40:46;1.45;;;0.47;;
25780;SDS011;13626;48.128;11.628;2023-04-24T01:43:13;0.60;;;0.60;;
25780;SDS011;13626;48.128;11.628;2023-04-24T01:45:40;0.90;;;0.55;;
25780;SDS011;13626;48.128;11.628;2023-04-24T01:48:07;0.55;;;0.50;;
25780;SDS011;13626;48.128;11.628;2023-04-24T01:50:35;1.15;;;0.52;;
25780;SDS011;13626;48.128;11.628;2023-04-24T01:53:02;1.08;;;0.50;;
25780;SDS011;13626;48.128;11.628;2023-04-24T01:55:29;0.60;;;0.50;;
25780;SDS011;13626;48.128;11.628;2023-04-24T01:57:56;0.43;;;0.43;;
25780;SDS011;13626;48.128;11.628;2023-04-24T02:00:24;0.38;;;0.15;;
25780;SDS011;13626;48.128;11.628;2023-04-24T02:02:51;0.82;;;0.40;;
25780;SDS011;13626;48.128;11.628;2023-04-24T02:05:19;1.17;;;0.40;;
25780;SDS011;13626;48.128;11.628;2023-04-24T02:07:46;0.45;;;0.45;;
25780;SDS011;13626;48.128;11.628;2023-04-24T02:10:13;0.40;;;0.40;;
25780;SDS011;13626;48.128;11.628;2023-04-24T02:12:40;0.40;;;0.38;;
25780;SDS011;13626;48.128;11.628;2023-04-24T02:15:07;1.48;;;0.32;;
25780;SDS011;13626;48.128;11.628;2023-04-24T02:17:35;0.40;;;0.35;;
25780;SDS011;13626;48.128;11.628;2023-04-24T02:20:02;0.40;;;0.40;;
25780;SDS011;13626;48.128;11.628;2023-04-24T02:22:30;0.68;;;0.38;;
25780;SDS011;13626;48.128;11.628;2023-04-24T02:24:57;0.65;;;0.45;;
25780;SDS011;13626;48.128;11.628;2023-04-24T02:27:25;0.63;;;0.63;;
25780;SDS011;13626;48.128;11.628;2023-04-24T02:29:52;0.57;;;0.38;;
25780;SDS011;13626;48.128;11.628;2023-04-24T02:32:19;0.93;;;0.60;;
25780;SDS011;13626;48.128;11.628;2023-04-24T02:34:46;2.35;;;0.40;;
25780;SDS011;13626;48.128;11.628;2023-04-24T02:37:13;2.13;;;0.70;;
25780;SDS011;13626;48.128;11.628;2023-04-24T02:39:40;1.10;;;0.28;;
25780;SDS011;13626;48.128;11.628;2023-04-24T02:42:08;0.55;;;0.55;;
25780;SDS011;13626;48.128;11.628;2023-04-24T02:44:35;1.15;;;0.35;;
25780;SDS011;13626;48.128;11.628;2023-04-24T02:47:03;0.43;;;0.40;;
25780;SDS011;13626;48.128;11.628;2023-04-24T02:49:30;2.40;;;0.43;;
25780;SDS011;13626;48.128;11.628;2023-04-24T02:51:57;0.60;;;0.60;;
25780;SDS011;13626;48.128;11.628;2023-04-24T02:54:24;0.73;;;0.40;;
25780;SDS011;13626;48.128;11.628;2023-04-24T02:56:51;0.65;;;0.40;;
25780;SDS011;13626;48.128;11.628;2023-04-24T02:59:19;0.60;;;0.40;;
25780;SDS011;13626;48.128;11.628;2023-04-24T03:01:46;0.40;;;0.30;;
25780;SDS011;13626;48.128;11.628;2023-04-24T03:04:13;0.35;;;0.35;;
25780;SDS011;13626;48.128;11.628;2023-04-24T03:06:42;0.70;;;0.43;;
25780;SDS011;13626;48.128;11.628;2023-04-24T03:09:09;0.55;;;0.40;;
25780;SDS011;13626;48.128;11.628;2023-04-24T03:11:36;0.55;;;0.50;;
25780;SDS011;13626;48.128;11.628;2023-04-24T03:14:03;2.30;;;0.70;;
25780;SDS011;13626;48.128;11.628;2023-04-24T03:16:30;0.70;;;0.32;;
25780;SDS011;13626;48.128;11.628;2023-04-24T03:18:59;0.50;;;0.43;;
25780;SDS011;13626;48.128;11.628;2023-04-24T03:21:26;0.40;;;0.40;;
25780;SDS011;13626;48.128;11.628;2023-04-24T03:23:54;1.45;;;0.40;;
25780;SDS011;13626;48.128;11.628;2023-04-24T03:26:22;0.40;;;0.40;;
25780;SDS011;13626;48.128;11.628;2023-04-24T03:28:49;0.73;;;0.40;;
25780;SDS011;13626;48.128;11.628;2023-04-24T03:31:16;0.50;;;0.50;;
25780;SDS011;13626;48.128;11.628;2023-04-24T03:33:45;0.50;;;0.40;;
25780;SDS011;13626;48.128;11.628;2023-04-24T03:36:12;0.50;;;0.40;;
25780;SDS011;13626;48.128;11.628;2023-04-24T03:38:39;0.60;;;0.40;;
25780;SDS011;13626;48.128;11.628;2023-04-24T03:41:06;1.08;;;0.55;;
25780;SDS011;13626;48.128;11.628;2023-04-24T03:43:33;0.60;;;0.50;;
25780;SDS011;13626;48.128;11.628;2023-04-24T03:46:01;6.45;;;1.85;;
25780;SDS011;13626;48.128;11.628;2023-04-24T03:48:28;0.60;;;0.50;;
25780;SDS011;13626;48.128;11.628;2023-04-24T03:50:55;0.73;;;0.70;;
25780;SDS011;13626;48.128;11.628;2023-04-24T03:53:22;0.88;;;0.43;;
25780;SDS011;13626;48.128;11.628;2023-04-24T03:55:49;0.70;;;0.70;;
25780;SDS011;13626;48.128;11.628;2023-04-24T03:58:16;0.85;;;0.60;;
25780;SDS011;13626;48.128;11.628;2023-04-24T04:00:44;2.72;;;0.60;;
25780;SDS011;13626;48.128;11.628;2023-04-24T04:03:13;1.75;;;0.70;;
25780;SDS011;13626;48.128;11.628;2023-04-24T04:05:41;1.58;;;0.70;;
25780;SDS011;13626;48.128;11.628;2023-04-24T04:08:08;1.73;;;0.50;;
25780;SDS011;13626;48.128;11.628;2023-04-24T04:10:36;1.02;;;0.57;;
25780;SDS011;13626;48.128;11.628;2023-04-24T04:13:03;2.60;;;0.88;;
25780;SDS011;13626;48.128;11.628;2023-04-24T04:15:30;2.03;;;0.70;;
25780;SDS011;13626;48.128;11.628;2023-04-24T04:17:57;0.47;;;0.47;;
25780;SDS011;13626;48.128;11.628;2023-04-24T04:20:24;0.70;;;0.50;;
25780;SDS011;13626;48.128;11.628;2023-04-24T04:22:52;0.50;;;0.50;;
25780;SDS011;13626;48.128;11.628;2023-04-24T04:25:19;0.60;;;0.60;;
25780;SDS011;13626;48.128;11.628;2023-04-24T04:27:46;1.90;;;0.77;;
25780;SDS011;13626;48.128;11.628;2023-04-24T04:30:17;0.57;;;0.57;;
25780;SDS011;13626;48.128;11.628;2023-04-24T04:32:44;1.70;;;0.70;;
25780;SDS011;13626;48.128;11.628;2023-04-24T04:35:11;1.08;;;0.75;;
25780;SDS011;13626;48.128;11.628;2023-04-24T04:37:38;1.38;;;0.80;;
25780;SDS011;13626;48.128;11.628;2023-04-24T04:40:06;1.42;;;0.60;;
25780;SDS011;13626;48.128;11.628;2023-04-24T04:42:33;0.60;;;0.40;;
25780;SDS011;13626;48.128;11.628;2023-04-24T04:45:00;1.92;;;0.90;;
25780;SDS011;13626;48.128;11.628;2023-04-24T04:47:28;0.75;;;0.70;;
25780;SDS011;13626;48.128;11.628;2023-04-24T04:49:57;2.25;;;0.70;;
25780;SDS011;13626;48.128;11.628;2023-04-24T04:52:25;1.40;;;0.98;;
25780;SDS011;13626;48.128;11.628;2023-04-24T04:54:52;0.95;;;0.52;;
25780;SDS011;13626;48.128;11.628;2023-04-24T04:57:19;1.38;;;0.50;;
25780;SDS011;13626;48.128;11.628;2023-04-24T04:59:47;1.00;;;0.60;;
25780;SDS011;13626;48.128;11.628;2023-04-24T05:02:14;0.95;;;0.60;;
25780;SDS011;13626;48.128;11.628;2023-04-24T05:04:42;0.88;;;0.63;;
25780;SDS011;13626;48.128;11.628;2023-04-24T05:07:09;1.25;;;0.65;;
25780;SDS011;13626;48.128;11.628;2023-04-24T05:09:36;1.02;;;0.52;;
25780;SDS011;13626;48.128;11.628;2023-04-24T05:12:03;0.50;;;0.50;;
25780;SDS011;13626;48.128;11.628;2023-04-24T05:14:31;1.35;;;0.85;;
25780;SDS011;13626;48.128;11.628;2023-04-24T05:16:58;0.57;;;0.47;;
25780;SDS011;13626;48.128;11.628;2023-04-24T05:19:26;0.60;;;0.40;;
25780;SDS011;13626;48.128;11.628;2023-04-24T05:21:53;0.98;;;0.60;;
25780;SDS011;13626;48.128;11.628;2023-04-24T05:24:20;0.55;;;0.55;;
25780;SDS011;13626;48.128;11.628;2023-04-24T05:26:47;1.35;;;0.70;;
25780;SDS011;13626;48.128;11.628;2023-04-24T05:29:14;0.43;;;0.43;;
25780;SDS011;13626;48.128;11.628;2023-04-24T05:31:42;0.57;;;0.57;;
25780;SDS011;13626;48.128;11.628;2023-04-24T05:34:09;0.65;;;0.40;;
25780;SDS011;13626;48.128;11.628;2023-04-24T05:36:36;1.85;;;0.50;;
25780;SDS011;13626;48.128;11.628;2023-04-24T05:39:03;1.70;;;0.63;;
25780;SDS011;13626;48.128;11.628;2023-04-24T05:41:33;1.23;;;0.40;;
25780;SDS011;13626;48.128;11.628;2023-04-24T05:44:00;0.82;;;0.47;;
25780;SDS011;13626;48.128;11.628;2023-04-24T05:46:28;0.32;;;0.30;;
25780;SDS011;13626;48.128;11.628;2023-04-24T05:48:55;0.55;;;0.55;;
25780;SDS011;13626;48.128;11.628;2023-04-24T05:51:22;0.50;;;0.50;;
25780;SDS011;13626;48.128;11.628;2023-04-24T05:53:49;0.88;;;0.50;;
25780;SDS011;13626;48.128;11.628;2023-04-24T05:56:16;0.52;;;0.43;;
25780;SDS011;13626;48.128;11.628;2023-04-24T05:58:44;0.73;;;0.60;;
25780;SDS011;13626;48.128;11.628;2023-04-24T06:01:13;0.52;;;0.50;;
25780;SDS011;13626;48.128;11.628;2023-04-24T06:03:43;0.50;;;0.35;;
25780;SDS011;13626;48.128;11.628;2023-04-24T06:06:10;1.15;;;0.70;;
25780;SDS011;13626;48.128;11.628;2023-04-24T06:08:37;2.65;;;0.80;;
25780;SDS011;13626;48.128;11.628;2023-04-24T06:11:04;1.35;;;0.47;;
25780;SDS011;13626;48.128;11.628;2023-04-24T06:13:31;0.50;;;0.30;;
25780;SDS011;13626;48.128;11.628;2023-04-24T06:15:59;0.47;;;0.40;;
25780;SDS011;13626;48.128;11.628;2023-04-24T06:18:26;0.60;;;0.55;;
25780;SDS011;13626;48.128;11.628;2023-04-24T06:20:53;1.10;;;0.70;;
25780;SDS011;13626;48.128;11.628;2023-04-24T06:23:21;1.17;;;0.60;;
25780;SDS011;13626;48.128;11.628;2023-04-24T06:25:48;1.85;;;0.40;;
25780;SDS011;13626;48.128;11.628;2023-04-24T06:28:16;0.52;;;0.35;;
25780;SDS011;13626;48.128;11.628;2023-04-24T06:30:43;0.40;;;0.30;;
25780;SDS011;13626;48.128;11.628;2023-04-24T06:33:10;1.13;;;0.40;;
25780;SDS011;13626;48.128;11.628;2023-04-24T06:35:47;0.28;;;0.28;;
25780;SDS011;13626;48.128;11.628;2023-04-24T06:38:14;0.52;;;0.52;;
25780;SDS011;13626;48.128;11.628;2023-04-24T06:40:42;0.22;;;0.20;;
25780;SDS011;13626;48.128;11.628;2023-04-24T06:43:09;0.20;;;0.20;;
25780;SDS011;13626;48.128;11.628;2023-04-24T06:45:37;0.88;;;0.30;;
25780;SDS011;13626;48.128;11.628;2023-04-24T06:48:06;0.65;;;0.32;;
25780;SDS011;13626;48.128;11.628;2023-04-24T06:50:33;0.93;;;0.38;;
25780;SDS011;13626;48.128;11.628;2023-04-24T06:53:00;0.30;;;0.30;;
25780;SDS011;13626;48.128;11.628;2023-04-24T06:55:27;0.45;;;0.30;;
25780;SDS011;13626;48.128;11.628;2023-04-24T06:57:54;0.60;;;0.40;;
25780;SDS011;13626;48.128;11.628;2023-04-24T07:00:22;2.13;;;0.50;;
25780;SDS011;13626;48.128;11.628;2023-04-24T07:02:50;0.70;;;0.60;;
25780;SDS011;13626;48.128;11.628;2023-04-24T07:05:18;1.85;;;0.40;;
25780;SDS011;13626;48.128;11.628;2023-04-24T07:07:46;1.30;;;0.30;;
25780;SDS011;13626;48.128;11.628;2023-04-24T07:10:15;1.02;;;0.40;;
25780;SDS011;13626;48.128;11.628;2023-04-24T07:12:42;1.90;;;0.32;;
25780;SDS011;13626;48.128;11.628;2023-04-24T07:15:09;0.73;;;0.60;;
25780;SDS011;13626;48.128;11.628;2023-04-24T07:17:37;1.05;;;0.70;;
25780;SDS011;13626;48.128;11.628;2023-04-24T07:20:05;0.93;;;0.40;;
25780;SDS011;13626;48.128;11.628;2023-04-24T07:22:35;0.32;;;0.20;;
25780;SDS011;13626;48.128;11.628;2023-04-24T07:25:02;0.60;;;0.30;;
25780;SDS011;13626;48.128;11.628;2023-04-24T07:27:29;0.17;;;0.17;;
25780;SDS011;13626;48.128;11.628;2023-04-24T07:29:57;0.55;;;0.32;;
25780;SDS011;13626;48.128;11.628;2023-04-24T07:32:24;1.35;;;0.52;;
25780;SDS011;13626;48.128;11.628;2023-04-24T07:34:51;1.95;;;0.50;;
25780;SDS011;13626;48.128;11.628;2023-04-24T07:37:18;0.52;;;0.30;;
25780;SDS011;13626;48.128;11.628;2023-04-24T07:39:46;0.77;;;0.20;;
25780;SDS011;13626;48.128;11.628;2023-04-24T07:42:13;1.20;;;0.40;;
25780;SDS011;13626;48.128;11.628;2023-04-24T07:44:40;2.67;;;0.35;;
25780;SDS011;13626;48.128;11.628;2023-04-24T07:47:08;0.32;;;0.32;;
25780;SDS011;13626;48.128;11.628;2023-04-24T07:49:35;0.20;;;0.20;;
25780;SDS011;13626;48.128;11.628;2023-04-24T07:52:03;2.13;;;0.45;;
25780;SDS011;13626;48.128;11.628;2023-04-24T07:54:30;0.15;;;0.15;;
25780;SDS011;13626;48.128;11.628;2023-04-24T07:56:57;0.30;;;0.30;;
25780;SDS011;13626;48.128;11.628;2023-04-24T07:59:24;0.75;;;0.30;;
25780;SDS011;13626;48.128;11.628;2023-04-24T08:01:51;0.60;;;0.40;;
25780;SDS011;13626;48.128;11.628;2023-04-24T08:04:18;1.85;;;0.38;;
25780;SDS011;13626;48.128;11.628;2023-04-24T08:06:47;0.20;;;0.20;;
25780;SDS011;13626;48.128;11.628;2023-04-24T08:09:14;0.30;;;0.30;;
25780;SDS011;13626;48.128;11.628;2023-04-24T08:11:41;0.55;;;0.40;;
25780;SDS011;13626;48.128;11.628;2023-04-24T08:14:08;1.05;;;0.32;;
25780;SDS011;13626;48.128;11.628;2023-04-24T08:16:35;0.50;;;0.20;;
25780;SDS011;13626;48.128;11.628;2023-04-24T08:19:03;2.45;;;0.60;;
25780;SDS011;13626;48.128;11.628;2023-04-24T08:21:30;1.17;;;0.30;;
25780;SDS011;13626;48.128;11.628;2023-04-24T08:23:57;1.35;;;0.43;;
25780;SDS011;13626;48.128;11.628;2023-04-24T08:26:25;0.85;;;0.40;;
25780;SDS011;13626;48.128;11.628;2023-04-24T08:28:52;0.25;;;0.25;;
25780;SDS011;13626;48.128;11.628;2023-04-24T08:31:19;0.85;;;0.22;;
25780;SDS011;13626;48.128;11.628;2023-04-24T08:33:46;0.55;;;0.40;;
25780;SDS011;13626;48.128;11.628;2023-04-24T08:36:14;0.73;;;0.35;;
25780;SDS011;13626;48.128;11.628;2023-04-24T08:38:41;0.75;;;0.50;;
25780;SDS011;13626;48.128;11.628;2023-04-24T08:41:09;2.90;;;0.40;;
25780;SDS011;13626;48.128;11.628;2023-04-24T08:43:36;3.28;;;1.15;;
25780;SDS011;13626;48.128;11.628;2023-04-24T08:46:04;2.90;;;0.85;;
25780;SDS011;13626;48.128;11.628;2023-04-24T08:48:36;0.63;;;0.40;;
25780;SDS011;13626;48.128;11.628;2023-04-24T08:51:05;1.02;;;0.73;;
25780;SDS011;13626;48.128;11.628;2023-04-24T08:53:34;1.27;;;0.70;;
25780;SDS011;13626;48.128;11.628;2023-04-24T08:56:01;1.55;;;0.80;;
25780;SDS011;13626;48.128;11.628;2023-04-24T08:58:29;2.67;;;0.80;;
25780;SDS011;13626;48.128;11.628;2023-04-24T09:00:57;0.77;;;0.77;;
25780;SDS011;13626;48.128;11.628;2023-04-24T09:03:25;2.25;;;1.00;;
25780;SDS011;13626;48.128;11.628;2023-04-24T09:05:54;2.50;;;1.10;;
25780;SDS011;13626;48.128;11.628;2023-04-24T09:08:23;2.47;;;0.95;;
25780;SDS011;13626;48.128;11.628;2023-04-24T09:10:51;2.10;;;1.10;;
25780;SDS011;13626;48.128;11.628;2023-04-24T09:13:18;2.53;;;0.80;;
25780;SDS011;13626;48.128;11.628;2023-04-24T09:15:46;2.03;;;0.98;;
25780;SDS011;13626;48.128;11.628;2023-04-24T09:18:13;1.33;;;1.00;;
25780;SDS011;13626;48.128;11.628;2023-04-24T09:23:43;2.15;;;1.02;;
25780;SDS011;13626;48.128;11.628;2023-04-24T09:26:11;1.33;;;0.63;;
25780;SDS011;13626;48.128;11.628;2023-04-24T09:28:40;1.00;;;0.90;;
25780;SDS011;13626;48.128;11.628;2023-04-24T09:31:09;0.73;;;0.73;;
25780;SDS011;13626;48.128;11.628;2023-04-24T09:33:36;3.30;;;1.17;;
25780;SDS011;13626;48.128;11.628;2023-04-24T09:36:04;0.95;;;0.85;;
25780;SDS011;13626;48.128;11.628;2023-04-24T09:38:33;1.20;;;1.10;;
25780;SDS011;13626;48.128;11.628;2023-04-24T09:41:07;1.27;;;1.00;;
25780;SDS011;13626;48.128;11.628;2023-04-24T09:43:35;5.88;;;1.20;;
25780;SDS011;13626;48.128;11.628;2023-04-24T09:46:06;1.70;;;0.88;;
25780;SDS011;13626;48.128;11.628;2023-04-24T09:48:35;1.65;;;0.80;;
25780;SDS011;13626;48.128;11.628;2023-04-24T09:51:03;0.85;;;0.85;;
25780;SDS011;13626;48.128;11.628;2023-04-24T09:53:33;1.45;;;0.90;;
25780;SDS011;13626;48.128;11.628;2023-04-24T09:56:10;2.00;;;0.70;;
25780;SDS011;13626;48.128;11.628;2023-04-24T09:58:41;1.38;;;0.98;;
25780;SDS011;13626;48.128;11.628;2023-04-24T10:01:08;3.25;;;0.80;;
25780;SDS011;13626;48.128;11.628;2023-04-24T10:03:35;1.30;;;0.75;;
25780;SDS011;13626;48.128;11.628;2023-04-24T10:06:03;1.13;;;0.90;;
25780;SDS011;13626;48.128;11.628;2023-04-24T10:08:36;1.23;;;0.80;;
25780;SDS011;13626;48.128;11.628;2023-04-24T10:11:04;2.53;;;1.00;;
25780;SDS011;13626;48.128;11.628;2023-04-24T10:13:31;1.05;;;0.95;;
25780;SDS011;13626;48.128;11.628;2023-04-24T10:15:59;1.15;;;1.00;;
25780;SDS011;13626;48.128;11.628;2023-04-24T10:18:27;2.03;;;1.10;;
25780;SDS011;13626;48.128;11.628;2023-04-24T10:20:55;1.38;;;0.85;;
25780;SDS011;13626;48.128;11.628;2023-04-24T10:23:23;0.93;;;0.70;;
25780;SDS011;13626;48.128;11.628;2023-04-24T10:25:52;1.45;;;1.00;;
25780;SDS011;13626;48.128;11.628;2023-04-24T10:28:19;1.45;;;1.13;;
25780;SDS011;13626;48.128;11.628;2023-04-24T10:30:47;2.00;;;0.98;;
25780;SDS011;13626;48.128;11.628;2023-04-24T10:33:16;1.02;;;0.93;;
25780;SDS011;13626;48.128;11.628;2023-04-24T10:35:44;2.53;;;1.10;;
25780;SDS011;13626;48.128;11.628;2023-04-24T10:38:14;1.40;;;1.05;;
25780;SDS011;13626;48.128;11.628;2023-04-24T10:40:42;2.00;;;0.90;;
25780;SDS011;13626;48.128;11.628;2023-04-24T10:43:10;0.95;;;0.95;;
25780;SDS011;13626;48.128;11.628;2023-04-24T10:45:38;1.20;;;0.80;;
25780;SDS011;13626;48.128;11.628;2023-04-24T10:48:09;1.65;;;0.93;;
25780;SDS011;13626;48.128;11.628;2023-04-24T10:53:23;1.23;;;1.13;;
25780;SDS011;13626;48.128;11.628;2023-04-24T10:56:03;1.52;;;1.20;;
25780;SDS011;13626;48.128;11.628;2023-04-24T11:01:04;5.25;;;1.40;;
25780;SDS011;13626;48.128;11.628;2023-04-24T11:03:33;2.70;;;1.05;;
25780;SDS011;13626;48.128;11.628;2023-04-24T11:06:02;3.80;;;0.95;;
25780;SDS011;13626;48.128;11.628;2023-04-24T11:08:30;1.13;;;0.90;;
25780;SDS011;13626;48.128;11.628;2023-04-24T11:11:08;1.95;;;0.73;;
25780;SDS011;13626;48.128;11.628;2023-04-24T11:26:53;2.50;;;0.70;;
25780;SDS011;13626;48.128;11.628;2023-04-24T11:29:20;1.30;;;1.00;;
25780;SDS011;13626;48.128;11.628;2023-04-24T11:31:49;1.45;;;1.00;;
25780;SDS011;13626;48.128;11.628;2023-04-24T11:34:17;0.95;;;0.85;;
25780;SDS011;13626;48.128;11.628;2023-04-24T11:36:45;1.05;;;0.95;;
25780;SDS011;13626;48.128;11.628;2023-04-24T11:39:14;1.65;;;1.00;;
25780;SDS011;13626;48.128;11.628;2023-04-24T11:41:41;1.17;;;1.00;;
25780;SDS011;13626;48.128;11.628;2023-04-24T11:44:09;1.13;;;1.00;;
25780;SDS011;13626;48.128;11.628;2023-04-24T11:46:38;9.68;;;1.10;;
25780;SDS011;13626;48.128;11.628;2023-04-24T11:49:06;0.80;;;0.80;;
25780;SDS011;13626;48.128;11.628;2023-04-24T11:51:34;1.33;;;0.98;;
25780;SDS011;13626;48.128;11.628;2023-04-24T11:54:13;0.85;;;0.85;;
25780;SDS011;13626;48.128;11.628;2023-04-24T11:56:44;0.98;;;0.90;;
25780;SDS011;13626;48.128;11.628;2023-04-24T11:59:11;1.13;;;0.93;;
25780;SDS011;13626;48.128;11.628;2023-04-24T12:01:45;1.65;;;0.90;;
25780;SDS011;13626;48.128;11.628;2023-04-24T12:04:13;1.02;;;0.93;;
25780;SDS011;13626;48.128;11.628;2023-04-24T12:06:58;1.90;;;1.00;;
25780;SDS011;13626;48.128;11.628;2023-04-24T12:09:26;1.10;;;1.00;;
25780;SDS011;13626;48.128;11.628;2023-04-24T12:11:53;1.00;;;0.90;;
25780;SDS011;13626;48.128;11.628;2023-04-24T12:14:23;1.33;;;1.00;;
25780;SDS011;13626;48.128;11.628;2023-04-24T12:16:51;1.45;;;1.20;;
25780;SDS011;13626;48.128;11.628;2023-04-24T12:19:20;0.77;;;0.77;;
25780;SDS011;13626;48.128;11.628;2023-04-24T12:22:03;1.00;;;0.90;;
25780;SDS011;13626;48.128;11.628;2023-04-24T12:24:31;1.45;;;1.02;;
25780;SDS011;13626;48.128;11.628;2023-04-24T12:26:58;1.10;;;0.85;;
25780;SDS011;13626;48.128;11.628;2023-04-24T12:29:27;1.90;;;0.88;;
25780;SDS011;13626;48.128;11.628;2023-04-24T12:31:54;1.88;;;0.93;;
25780;SDS011;13626;48.128;11.628;2023-04-24T12:34:22;1.30;;;0.90;;
25780;SDS011;13626;48.128;11.628;2023-04-24T12:36:51;0.82;;;0.82;;
25780;SDS011;13626;48.128;11.628;2023-04-24T12:39:18;3.88;;;0.90;;
25780;SDS011;13626;48.128;11.628;2023-04-24T12:41:55;2.30;;;1.15;;
25780;SDS011;13626;48.128;11.628;2023-04-24T12:44:32;2.05;;;1.00;;
25780;SDS011;13626;48.128;11.628;2023-04-24T12:47:01;1.33;;;0.88;;
25780;SDS011;13626;48.128;11.628;2023-04-24T12:49:29;1.42;;;1.00;;
25780;SDS011;13626;48.128;11.628;2023-04-24T12:51:57;1.25;;;1.15;;
25780;SDS011;13626;48.128;11.628;2023-04-24T12:54:24;1.42;;;1.17;;
25780;SDS011;13626;48.128;11.628;2023-04-24T12:56:52;5.28;;;1.30;;
25780;SDS011;13626;48.128;11.628;2023-04-24T12:59:19;1.10;;;1.00;;
25780;SDS011;13626;48.128;11.628;2023-04-24T13:01:46;4.13;;;1.23;;
25780;SDS011;13626;48.128;11.628;2023-04-24T13:04:13;1.10;;;0.90;;
25780;SDS011;13626;48.128;11.628;2023-04-24T13:06:41;1.05;;;0.95;;
25780;SDS011;13626;48.128;11.628;2023-04-24T13:09:08;0.88;;;0.80;;
25780;SDS011;13626;48.128;11.628;2023-04-24T13:11:36;2.35;;;1.00;;
25780;SDS011;13626;48.128;11.628;2023-04-24T13:14:03;2.60;;;1.13;;
25780;SDS011;13626;48.128;11.628;2023-04-24T13:16:30;1.75;;;1.15;;
25780;SDS011;13626;48.128;11.628;2023-04-24T13:18:57;2.20;;;1.05;;
25780;SDS011;13626;48.128;11.628;2023-04-24T13:21:25;2.33;;;1.13;;
25780;SDS011;13626;48.128;11.628;2023-04-24T13:23:52;1.25;;;0.95;;
25780;SDS011;13626;48.128;11.628;2023-04-24T13:26:19;3.60;;;1.20;;
25780;SDS011;13626;48.128;11.628;2023-04-24T13:28:46;1.38;;;1.20;;
25780;SDS011;13626;48.128;11.628;2023-04-24T13:31:14;1.63;;;1.25;;
25780;SDS011;13626;48.128;11.628;2023-04-24T13:33:41;1.60;;;1.20;;
25780;SDS011;13626;48.128;11.628;2023-04-24T13:36:09;7.93;;;1.63;;
25780;SDS011;13626;48.128;11.628;2023-04-24T13:38:36;1.63;;;1.23;;
25780;SDS011;13626;48.128;11.628;2023-04-24T13:41:03;2.90;;;1.23;;
25780;SDS011;13626;48.128;11.628;2023-04-24T13:43:31;2.75;;;1.15;;
25780;SDS011;13626;48.128;11.628;2023-04-24T13:45:58;2.92;;;1.30;;
25780;SDS011;13626;48.128;11.628;2023-04-24T13:48:28;2.15;;;1.20;;
25780;SDS011;13626;48.128;11.628;2023-04-24T13:50:55;2.90;;;1.15;;
25780;SDS011;13626;48.128;11.628;2023-04-24T13:53:22;1.70;;;1.05;;
25780;SDS011;13626;48.128;11.628;2023-04-24T13:55:50;4.63;;;1.27;;
25780;SDS011;13626;48.128;11.628;2023-04-24T13:58:17;2.17;;;1.20;;
25780;SDS011;13626;48.128;11.628;2023-04-24T14:00:44;2.22;;;1.15;;
25780;SDS011;13626;48.128;11.628;2023-04-24T14:03:12;1.50;;;1.00;;
25780;SDS011;13626;48.128;11.628;2023-04-24T14:05:40;2.92;;;1.23;;
25780;SDS011;13626;48.128;11.628;2023-04-24T14:08:07;1.17;;;1.00;;
25780;SDS011;13626;48.128;11.628;2023-04-24T14:10:35;4.57;;;1.40;;
25780;SDS011;13626;48.128;11.628;2023-04-24T14:13:03;3.35;;;1.17;;
25780;SDS011;13626;48.128;11.628;2023-04-24T14:15:30;3.33;;;1.20;;
25780;SDS011;13626;48.128;11.628;2023-04-24T14:17:58;3.72;;;1.40;;
25780;SDS011;13626;48.128;11.628;2023-04-24T14:20:25;3.30;;;1.30;;
25780;SDS011;13626;48.128;11.628;2023-04-24T14:22:53;2.13;;;1.20;;
25780;SDS011;13626;48.128;11.628;2023-04-24T14:25:21;4.20;;;1.73;;
25780;SDS011;13626;48.128;11.628;2023-04-24T14:27:49;1.85;;;1.27;;
25780;SDS011;13626;48.128;11.628;2023-04-24T14:30:17;1.83;;;1.30;;
25780;SDS011;13626;48.128;11.628;2023-04-24T14:32:46;1.60;;;1.05;;
25780;SDS011;13626;48.128;11.628;2023-04-24T14:35:16;3.20;;;1.27;;
25780;SDS011;13626;48.128;11.628;2023-04-24T14:37:44;2.72;;;1.30;;
25780;SDS011;13626;48.128;11.628;2023-04-24T14:40:12;3.22;;;1.33;;
25780;SDS011;13626;48.128;11.628;2023-04-24T14:42:59;1.27;;;1.02;;
25780;SDS011;13626;48.128;11.628;2023-04-24T14:45:26;1.42;;;1.20;;
25780;SDS011;13626;48.128;11.628;2023-04-24T14:47:54;2.88;;;1.38;;
25780;SDS011;13626;48.128;11.628;2023-04-24T14:50:21;3.90;;;2.08;;
25780;SDS011;13626;48.128;11.628;2023-04-24T14:52:50;3.47;;;1.50;;
25780;SDS011;13626;48.128;11.628;2023-04-24T14:55:17;2.35;;;1.30;;
25780;SDS011;13626;48.128;11.628;2023-04-24T14:57:44;4.00;;;1.17;;
25780;SDS011;13626;48.128;11.628;2023-04-24T15:00:11;2.60;;;1.42;;